Time;durP1;ratioP1;P1;durP2;ratioP2;P2;SDS_P1;SDS_P2;PMS_P1;PMS_P2;Temp;Humidity;BMP_temperature;BMP_pressure;BME280_temperature;BME280_humidity;BME280_pressure;Samples;Min_cycle;Max_cycle;Signal;HPM_P1;HPM_P2
2021/12/07 00:09:15;;;;;;;27.63;17.07;;;;;;;-2.75;100.00;100265.13;20982768;27;20569;-67
2021/12/07 00:19:18;;;;;;;23.70;16.40;;;;;;;-2.77;100.00;100277.31;20988023;28;20318;-65
2021/12/07 00:29:22;;;;;;;30.50;18.37;;;;;;;-2.83;100.00;100283.50;21016896;27;20250;-66
2021/12/07 00:39:26;;;;;;;28.17;18.27;;;;;;;-2.80;100.00;100293.06;21053835;27;20233;-65
2021/12/07 00:49:29;;;;;;;22.27;15.03;;;;;;;-2.75;100.00;100293.84;21054623;27;20253;-65
2021/12/07 00:59:33;;;;;;;23.97;16.27;;;;;;;-2.75;100.00;100310.38;21035940;27;20246;-60
2021/12/07 01:24:37;;;;;;;22.13;14.57;;;;;;;-2.66;100.00;100314.66;21053730;27;20223;-67
2021/12/07 01:50:42;;;;;;;21.50;13.30;;;;;;;-2.69;100.00;100315.56;21140543;27;20315;-64
2021/12/07 02:00:47;;;;;;;21.17;14.07;;;;;;;-2.67;100.00;100292.91;21141347;27;20245;-67
2021/12/07 02:10:56;;;;;;;20.23;13.27;;;;;;;-2.56;100.00;100301.47;21138470;27;20230;-61
2021/12/07 02:21:21;;;;;;;22.47;12.70;;;;;;;-2.48;100.00;100313.56;21136317;27;20309;-67
2021/12/07 02:31:30;;;;;;;19.83;12.83;;;;;;;-2.46;100.00;100332.72;21136174;27;20230;-68
2021/12/07 02:41:34;;;;;;;21.13;13.03;;;;;;;-2.44;100.00;100302.22;21135343;27;20705;-66
2021/12/07 02:51:38;;;;;;;26.43;15.03;;;;;;;-2.45;100.00;100308.31;21079340;28;21256;-66
2021/12/07 03:01:46;;;;;;;24.60;15.87;;;;;;;-2.47;100.00;100310.09;21078566;28;20791;-67
2021/12/07 03:32:33;;;;;;;33.47;19.47;;;;;;;-2.62;100.00;100301.53;21062344;28;20222;-68
2021/12/07 03:42:37;;;;;;;30.17;18.93;;;;;;;-2.57;100.00;100306.72;21076654;28;20714;-67
2021/12/07 03:52:40;;;;;;;31.10;18.37;;;;;;;-2.62;100.00;100296.31;21075962;28;20606;-68
2021/12/07 04:02:46;;;;;;;29.60;17.70;;;;;;;-2.70;100.00;100302.50;21072315;28;20214;-68
2021/12/07 04:12:53;;;;;;;34.83;19.40;;;;;;;-2.69;100.00;100320.78;21072382;28;20592;-68
2021/12/07 04:22:57;;;;;;;25.67;15.30;;;;;;;-2.68;100.00;100332.97;21052917;28;20590;-66
2021/12/07 04:33:03;;;;;;;24.70;15.63;;;;;;;-2.67;100.00;100342.53;21071793;28;20627;-61
2021/12/07 04:43:07;;;;;;;30.73;17.17;;;;;;;-2.72;100.00;100341.69;21071323;28;20768;-64
2021/12/07 05:03:11;;;;;;;27.97;14.30;;;;;;;-2.67;100.00;100328.59;20906773;27;20564;-69
2021/12/07 05:13:28;;;;;;;24.13;13.87;;;;;;;-2.62;100.00;100353.78;20889983;28;20309;-68
2021/12/07 05:23:57;;;;;;;32.03;16.40;;;;;;;-2.57;100.00;100352.00;20874601;28;20634;-67
2021/12/07 05:44:19;;;;;;;30.17;16.03;;;;;;;-2.51;100.00;100371.09;20875713;28;20257;-66
2021/12/07 05:54:23;;;;;;;27.47;15.60;;;;;;;-2.51;100.00;100365.84;20887258;28;20219;-69
2021/12/07 06:04:28;;;;;;;27.97;15.97;;;;;;;-2.53;100.00;100364.13;20901473;28;20223;-68
2021/12/07 06:14:35;;;;;;;22.47;14.03;;;;;;;-2.51;100.00;100366.72;20869423;28;20227;-66
2021/12/07 06:24:38;;;;;;;20.57;12.37;;;;;;;-2.55;100.00;100371.13;20867769;28;20216;-68
2021/12/07 06:34:41;;;;;;;25.43;13.83;;;;;;;-2.58;100.00;100368.53;20868996;28;20263;-64
2021/12/07 06:44:45;;;;;;;22.63;13.17;;;;;;;-2.59;100.00;100381.63;20869806;28;20270;-64
2021/12/07 06:54:48;;;;;;;21.43;14.20;;;;;;;-2.59;100.00;100384.22;20860443;28;20222;-67
2021/12/07 07:04:51;;;;;;;23.10;14.57;;;;;;;-2.55;100.00;100392.03;20863022;28;20611;-61
2021/12/07 07:14:55;;;;;;;26.20;14.20;;;;;;;-2.50;100.00;100388.50;20847957;28;20228;-63
2021/12/07 07:26:06;;;;;;;24.47;15.10;;;;;;;-2.44;100.00;100404.13;21098948;27;20670;-68
2021/12/07 07:36:10;;;;;;;27.33;17.00;;;;;;;-2.41;100.00;100410.16;21095393;27;20218;-62
2021/12/07 07:46:13;;;;;;;32.43;18.30;;;;;;;-2.35;100.00;100414.47;21093581;27;20963;-66
2021/12/07 07:56:19;;;;;;;32.57;18.93;;;;;;;-2.33;100.00;100420.56;21092796;27;20230;-63
2021/12/07 08:06:23;;;;;;;31.87;16.93;;;;;;;-2.23;100.00;100424.78;21092896;27;20232;-64
2021/12/07 08:16:29;;;;;;;33.13;18.90;;;;;;;-2.15;100.00;100436.03;21091331;27;20711;-64
2021/12/07 08:26:34;;;;;;;30.17;18.20;;;;;;;-1.94;100.00;100448.88;21102460;27;20296;-69
2021/12/07 08:36:38;;;;;;;29.90;17.13;;;;;;;-1.82;100.00;100453.97;21037939;27;20234;-64
2021/12/07 08:46:42;;;;;;;28.60;17.50;;;;;;;-1.79;100.00;100457.41;20999578;28;20226;-67
2021/12/07 09:07:06;;;;;;;27.73;17.17;;;;;;;-1.61;100.00;100478.13;21017860;28;20218;-70
2021/12/07 09:17:11;;;;;;;23.13;16.00;;;;;;;-1.61;100.00;100486.84;21029366;28;20237;-62
2021/12/07 09:27:14;;;;;;;29.60;17.90;;;;;;;-1.51;100.00;100487.59;21047461;28;20240;-60
2021/12/07 09:37:21;;;;;;;21.90;15.13;;;;;;;-1.46;100.00;100473.56;21028731;28;20241;-61
2021/12/07 09:47:25;;;;;;;24.60;16.07;;;;;;;-1.46;100.00;100477.94;21025860;28;20823;-66
2021/12/07 09:57:28;;;;;;;25.67;16.60;;;;;;;-1.31;100.00;100464.63;21029727;28;20246;-71
2021/12/07 10:07:33;;;;;;;28.60;17.87;;;;;;;-1.13;100.00;100456.53;21027751;28;20222;-66
2021/12/07 10:17:38;;;;;;;22.27;15.00;;;;;;;-1.00;100.00;100451.09;21027143;28;20226;-67
2021/12/07 10:27:43;;;;;;;18.07;13.83;;;;;;;-1.04;100.00;100450.28;21023591;28;20259;-62
2021/12/07 10:38:08;;;;;;;17.93;12.17;;;;;;;-0.95;100.00;100444.03;21024797;28;20226;-61
2021/12/07 10:48:24;;;;;;;19.83;13.60;;;;;;;-0.89;100.00;100438.72;21017757;28;20225;-61
2021/12/07 10:58:30;;;;;;;22.80;14.53;;;;;;;-1.08;100.00;100433.75;20997046;28;20222;-62
2021/12/07 11:08:38;;;;;;;17.70;12.37;;;;;;;-1.27;100.00;100442.75;21002654;28;20218;-61
2021/12/07 11:18:45;;;;;;;17.90;12.47;;;;;;;-1.44;100.00;100434.25;21021268;28;20583;-64
2021/12/07 11:39:31;;;;;;;19.53;12.63;;;;;;;-1.57;100.00;100444.03;21023516;28;20318;-61
2021/12/07 11:49:36;;;;;;;24.03;13.93;;;;;;;-1.86;100.00;100456.63;21020282;28;20313;-60
2021/12/07 11:59:40;;;;;;;18.77;12.60;;;;;;;-1.74;100.00;100477.41;21020515;28;20317;-60
2021/12/07 12:09:51;;;;;;;15.53;10.83;;;;;;;-1.29;100.00;100475.06;21032324;28;20257;-61
2021/12/07 12:20:00;;;;;;;19.77;13.03;;;;;;;-1.04;100.00;100491.31;21032888;28;20222;-66
2021/12/07 12:30:22;;;;;;;20.70;13.57;;;;;;;-1.04;100.00;100486.94;21035355;28;20226;-67
2021/12/07 12:40:31;;;;;;;21.40;13.00;;;;;;;-1.16;100.00;100493.22;21034983;28;20304;-61
2021/12/07 12:50:56;;;;;;;22.80;13.87;;;;;;;-1.19;100.00;100493.25;21034601;28;20230;-60
2021/12/07 13:01:31;;;;;;;21.87;14.60;;;;;;;-1.30;100.00;100495.16;21031203;28;20222;-62
2021/12/07 13:11:41;;;;;;;18.70;13.23;;;;;;;-1.49;100.00;100509.38;21031727;28;20651;-61
2021/12/07 13:21:46;;;;;;;26.27;15.37;;;;;;;-1.68;100.00;100507.84;21027970;28;20316;-61
2021/12/07 13:31:57;;;;;;;23.90;15.47;;;;;;;-1.83;100.00;100508.91;21051193;27;20218;-62
2021/12/07 13:51:56;;;;;;;23.70;15.33;;;;;;;-2.11;100.00;100518.78;21089510;27;20635;-61
2021/12/07 14:02:02;;;;;;;23.77;14.97;;;;;;;-2.15;100.00;100522.28;21024340;28;20612;-62
2021/12/07 14:12:06;;;;;;;23.20;14.77;;;;;;;-2.26;100.00;100529.34;21007317;28;20218;-61
2021/12/07 14:22:10;;;;;;;23.47;14.47;;;;;;;-2.39;100.00;100538.19;20993163;28;20236;-66
2021/12/07 14:32:13;;;;;;;21.47;13.93;;;;;;;-2.61;100.00;100534.88;21050866;28;20237;-59
2021/12/07 14:42:18;;;;;;;21.50;13.33;;;;;;;-2.74;100.00;100541.06;21053201;28;20317;-61
2021/12/07 14:52:28;;;;;;;24.33;14.77;;;;;;;-2.87;100.00;100540.28;21050033;28;20257;-62
2021/12/07 15:02:37;;;;;;;21.53;13.40;;;;;;;-2.95;100.00;100537.72;20999645;28;20596;-66
2021/12/07 15:12:42;;;;;;;25.73;14.63;;;;;;;-2.94;100.00;100535.97;20995080;28;20222;-61
2021/12/07 15:22:46;;;;;;;23.10;13.60;;;;;;;-2.96;100.00;100541.19;20993964;28;20388;-67
2021/12/07 15:32:50;;;;;;;20.43;12.90;;;;;;;-3.06;100.00;100528.22;20994399;28;20656;-61
2021/12/07 15:42:54;;;;;;;20.43;12.27;;;;;;;-3.10;100.00;100532.56;20992279;28;20704;-70
2021/12/07 15:53:05;;;;;;;18.30;11.10;;;;;;;-3.11;100.00;100540.41;20991986;28;20223;-59
2021/12/07 16:03:17;;;;;;;17.80;10.80;;;;;;;-3.13;100.00;100547.38;21074840;28;20240;-61
2021/12/07 16:13:33;;;;;;;12.27;8.60;;;;;;;-3.14;100.00;100556.13;21062882;28;20225;-59
2021/12/07 16:23:41;;;;;;;7.43;4.73;;;;;;;-3.23;100.00;100582.22;21063133;28;20234;-59
2021/12/07 16:33:47;;;;;;;7.47;5.10;;;;;;;-3.37;100.00;100577.94;21072287;28;20408;-59
2021/12/07 16:43:51;;;;;;;6.87;5.53;;;;;;;-3.40;100.00;100591.00;20986968;28;20234;-62
2021/12/07 16:53:54;;;;;;;10.53;7.13;;;;;;;-3.42;100.00;100579.72;20986399;28;20227;-62
2021/12/07 17:03:58;;;;;;;11.53;7.43;;;;;;;-3.36;100.00;100577.06;20987358;28;20219;-61
2021/12/07 17:14:02;;;;;;;11.90;7.97;;;;;;;-3.35;100.00;100586.63;20984292;28;20227;-62
2021/12/07 17:24:05;;;;;;;14.17;8.57;;;;;;;-3.37;100.00;100585.75;21065659;28;20291;-62
2021/12/07 17:34:10;;;;;;;13.80;9.70;;;;;;;-3.44;100.00;100601.44;21049242;28;20281;-65
2021/12/07 17:44:14;;;;;;;12.40;9.33;;;;;;;-3.65;100.00;100574.56;20874646;28;20231;-64
2021/12/07 17:54:17;;;;;;;10.90;7.97;;;;;;;-3.51;100.00;100603.22;20906348;28;20243;-64
2021/12/07 18:04:27;;;;;;;13.13;9.03;;;;;;;-3.63;100.00;100587.59;20961742;28;20325;-69
2021/12/07 18:14:32;;;;;;;11.07;8.60;;;;;;;-3.52;100.00;100609.31;20922836;28;20218;-67
2021/12/07 18:24:35;;;;;;;14.47;9.93;;;;;;;-3.55;100.00;100611.91;20933530;28;20238;-68
2021/12/07 18:34:56;;;;;;;16.93;10.90;;;;;;;-3.62;100.00;100611.03;20911014;28;21087;-66
2021/12/07 18:44:59;;;;;;;20.63;12.90;;;;;;;-3.64;100.00;100606.72;20942691;28;21032;-66
2021/12/07 18:55:05;;;;;;;17.30;12.70;;;;;;;-3.60;100.00;100618.88;20961261;28;20775;-64
2021/12/07 19:05:11;;;;;;;12.07;9.83;;;;;;;-3.55;100.00;100622.34;20949048;28;20280;-66
2021/12/07 19:15:15;;;;;;;15.00;11.33;;;;;;;-3.55;100.00;100608.44;20908919;28;20602;-70
2021/12/07 19:25:19;;;;;;;17.17;11.90;;;;;;;-3.55;100.00;100606.69;20971877;28;20239;-66
2021/12/07 19:35:25;;;;;;;16.33;11.60;;;;;;;-3.55;100.00;100606.69;20941163;28;20250;-71
2021/12/07 19:45:32;;;;;;;15.73;12.83;;;;;;;-3.46;100.00;100605.78;20957238;28;20598;-63
2021/12/07 19:55:37;;;;;;;12.83;9.73;;;;;;;-3.46;100.00;100611.88;20972669;28;20312;-68
2021/12/07 20:05:41;;;;;;;11.80;8.90;;;;;;;-3.41;100.00;100607.53;20938364;28;20234;-66
2021/12/07 20:15:58;;;;;;;13.10;8.67;;;;;;;-3.34;100.00;100596.19;20915110;28;20701;-66
2021/12/07 20:26:03;;;;;;;24.27;15.10;;;;;;;-3.27;100.00;100592.69;20975863;28;20229;-65
2021/12/07 20:36:07;;;;;;;24.47;16.37;;;;;;;-3.34;100.00;100605.75;20980315;28;20344;-64
2021/12/07 20:46:12;;;;;;;22.07;14.50;;;;;;;-3.52;100.00;100608.44;20964106;28;20242;-65
2021/12/07 20:56:17;;;;;;;19.20;13.87;;;;;;;-3.66;100.00;100634.53;20983676;28;20237;-62
2021/12/07 21:06:41;;;;;;;18.77;12.43;;;;;;;-3.86;100.00;100618.03;20922134;28;20241;-61
2021/12/07 21:16:46;;;;;;;16.53;11.17;;;;;;;-4.03;100.00;100602.44;20910383;28;20300;-64
2021/12/07 21:26:51;;;;;;;12.87;9.27;;;;;;;-4.01;100.00;100612.00;20911492;28;20246;-67
2021/12/07 21:36:56;;;;;;;13.63;9.77;;;;;;;-4.09;100.00;100603.28;20951131;28;20229;-64
2021/12/07 21:47:01;;;;;;;15.00;10.90;;;;;;;-4.27;100.00;100612.84;20958881;28;20363;-65
2021/12/07 21:57:08;;;;;;;17.93;11.23;;;;;;;-4.42;100.00;100606.75;20875337;28;20223;-67
2021/12/07 22:07:11;;;;;;;17.27;12.17;;;;;;;-4.54;100.00;100611.09;20927717;28;20242;-66
2021/12/07 22:17:17;;;;;;;18.30;12.70;;;;;;;-4.51;100.00;100614.56;20936868;28;20731;-71
2021/12/07 22:27:22;;;;;;;17.60;12.67;;;;;;;-4.53;100.00;100605.00;21045090;28;20237;-69
2021/12/07 22:37:25;;;;;;;16.33;11.67;;;;;;;-4.55;100.00;100605.00;21081759;28;20218;-70
2021/12/07 22:47:28;;;;;;;21.07;15.20;;;;;;;-4.58;100.00;100585.91;21082001;28;20226;-67
2021/12/07 22:57:32;;;;;;;21.20;15.27;;;;;;;-4.55;100.00;100588.50;21081228;28;20226;-69
2021/12/07 23:07:35;;;;;;;22.83;13.90;;;;;;;-4.64;100.00;100585.91;21078286;28;20631;-71
2021/12/07 23:27:35;;;;;;;19.83;13.50;;;;;;;-4.84;100.00;100557.25;21061936;27;20575;-68
2021/12/07 23:37:40;;;;;;;21.90;14.20;;;;;;;-5.03;100.00;100556.31;21055951;28;20279;-70
2021/12/07 23:47:43;;;;;;;22.43;15.03;;;;;;;-5.07;100.00;100546.75;21057010;28;20228;-59
2021/12/07 23:57:47;;;;;;;25.53;15.87;;;;;;;-5.12;100.00;100545.91;21054853;28;20234;-71
